Terminal Aerodrome Forecast
Issued by NWS

Home | Current Version | Previous Version | Text Only | Print | Product List | Glossary On
Versions: 1 2 3 4 5 6 7 8 9 10 11 12 13 14 15 16 17 18 19 20 21 22 23 24 25 26 27 28 29 30 31 32
000
FTUS46 KEKA 261958 AAA
TAFACV
TAF AMD
KACV 261958Z 2620/2718 21014G24KT P6SM -RA SCT015 BKN025 OVC040
     FM262200 25012G24KT 2SM RA BR SCT007 OVC015
     FM270000 30010G20KT 5SM -SHRA BKN015 OVC035
     FM270200 14005KT P6SM -SHRA BKN025
     FM270700 14005KT P6SM -SHRA SCT025 BKN040=

USA.gov is the U.S. government's official web portal to all federal, state and local government web resources and services.